sensor_id;sensor_type;location;lat;lon;timestamp;pressure;altitude;pressure_sealevel;temperature;humidity
42289;BME280;30230;47.520;19.016;2023-08-17T00:00:54;99362.28;;;20.22;100.00
42289;BME280;30230;47.520;19.016;2023-08-17T00:02:54;99362.53;;;20.20;100.00
42289;BME280;30230;47.520;19.016;2023-08-17T00:04:55;99349.94;;;20.24;100.00
42289;BME280;30230;47.520;19.016;2023-08-17T00:06:55;99352.38;;;20.21;100.00
42289;BME280;30230;47.520;19.016;2023-08-17T00:08:56;99357.28;;;20.14;100.00
42289;BME280;30230;47.520;19.016;2023-08-17T00:10:56;99338.88;;;20.09;100.00
42289;BME280;30230;47.520;19.016;2023-08-17T00:12:57;99349.56;;;20.06;100.00
42289;BME280;30230;47.520;19.016;2023-08-17T00:14:57;99338.53;;;19.95;100.00
42289;BME280;30230;47.520;19.016;2023-08-17T00:16:58;99341.50;;;19.94;100.00
42289;BME280;30230;47.520;19.016;2023-08-17T00:18:58;99345.63;;;19.91;100.00
42289;BME280;30230;47.520;19.016;2023-08-17T00:20:58;99343.97;;;19.90;100.00
42289;BME280;30230;47.520;19.016;2023-08-17T00:22:59;99339.38;;;20.01;100.00
42289;BME280;30230;47.520;19.016;2023-08-17T00:24:59;99329.75;;;19.98;100.00
42289;BME280;30230;47.520;19.016;2023-08-17T00:27:00;99323.41;;;19.93;100.00
42289;BME280;30230;47.520;19.016;2023-08-17T00:29:00;99325.38;;;19.97;100.00
42289;BME280;30230;47.520;19.016;2023-08-17T00:31:01;99330.31;;;19.95;100.00
42289;BME280;30230;47.520;19.016;2023-08-17T00:33:02;99324.28;;;19.98;100.00
42289;BME280;30230;47.520;19.016;2023-08-17T00:35:03;99324.53;;;19.97;100.00
42289;BME280;30230;47.520;19.016;2023-08-17T00:37:03;99322.63;;;19.97;100.00
42289;BME280;30230;47.520;19.016;2023-08-17T00:39:03;99316.34;;;20.02;100.00
42289;BME280;30230;47.520;19.016;2023-08-17T00:41:04;99316.34;;;20.02;100.00
42289;BME280;30230;47.520;19.016;2023-08-17T00:43:05;99329.78;;;20.03;100.00
42289;BME280;30230;47.520;19.016;2023-08-17T00:45:06;99322.63;;;19.97;100.00
42289;BME280;30230;47.520;19.016;2023-08-17T00:47:06;99319.88;;;19.97;100.00
42289;BME280;30230;47.520;19.016;2023-08-17T00:49:07;99331.63;;;19.93;100.00
42289;BME280;30230;47.520;19.016;2023-08-17T00:51:08;99324.50;;;19.92;100.00
42289;BME280;30230;47.520;19.016;2023-08-17T00:53:08;99326.44;;;19.91;100.00
42289;BME280;30230;47.520;19.016;2023-08-17T00:55:13;99333.25;;;19.89;100.00
42289;BME280;30230;47.520;19.016;2023-08-17T00:57:14;99338.72;;;19.89;100.00
42289;BME280;30230;47.520;19.016;2023-08-17T00:59:14;99340.66;;;19.88;100.00
42289;BME280;30230;47.520;19.016;2023-08-17T01:01:15;99334.34;;;19.88;100.00
42289;BME280;30230;47.520;19.016;2023-08-17T01:03:16;99337.41;;;19.91;100.00
42289;BME280;30230;47.520;19.016;2023-08-17T01:05:18;99340.66;;;19.88;100.00
42289;BME280;30230;47.520;19.016;2023-08-17T01:07:18;99350.47;;;19.84;100.00
42289;BME280;30230;47.520;19.016;2023-08-17T01:09:18;99343.34;;;19.83;100.00
42289;BME280;30230;47.520;19.016;2023-08-17T01:11:36;99341.75;;;19.87;100.00
42289;BME280;30230;47.520;19.016;2023-08-17T01:13:57;99346.41;;;19.87;100.00
42289;BME280;30230;47.520;19.016;2023-08-17T01:16:02;99337.03;;;19.83;100.00
42289;BME280;30230;47.520;19.016;2023-08-17T01:18:13;99337.84;;;19.78;100.00
42289;BME280;30230;47.520;19.016;2023-08-17T01:20:16;99342.50;;;19.77;100.00
42289;BME280;30230;47.520;19.016;2023-08-17T01:22:21;99343.84;;;19.75;100.00
42289;BME280;30230;47.520;19.016;2023-08-17T01:24:22;99351.56;;;19.83;100.00
42289;BME280;30230;47.520;19.016;2023-08-17T01:26:23;99348.84;;;19.83;100.00
42289;BME280;30230;47.520;19.016;2023-08-17T01:28:23;99350.75;;;19.83;100.00
42289;BME280;30230;47.520;19.016;2023-08-17T01:30:24;99347.19;;;19.82;100.00
42289;BME280;30230;47.520;19.016;2023-08-17T01:32:32;99347.69;;;19.79;100.00
42289;BME280;30230;47.520;19.016;2023-08-17T01:34:40;99348.53;;;19.80;100.00
42289;BME280;30230;47.520;19.016;2023-08-17T01:36:52;99330.31;;;19.95;100.00
42289;BME280;30230;47.520;19.016;2023-08-17T01:38:54;99337.94;;;19.93;100.00
42289;BME280;30230;47.520;19.016;2023-08-17T01:40:57;99344.22;;;19.89;100.00
42289;BME280;30230;47.520;19.016;2023-08-17T01:42:58;99332.47;;;19.93;100.00
42289;BME280;30230;47.520;19.016;2023-08-17T01:44:59;99328.06;;;19.92;100.00
42289;BME280;30230;47.520;19.016;2023-08-17T01:46:59;99329.13;;;19.86;100.00
42289;BME280;30230;47.520;19.016;2023-08-17T01:49:00;99326.34;;;19.81;100.00
42289;BME280;30230;47.520;19.016;2023-08-17T01:51:00;99333.78;;;19.86;100.00
42289;BME280;30230;47.520;19.016;2023-08-17T01:53:01;99335.44;;;19.87;100.00
42289;BME280;30230;47.520;19.016;2023-08-17T01:55:01;99325.81;;;19.84;100.00
42289;BME280;30230;47.520;19.016;2023-08-17T01:57:01;99337.44;;;19.96;100.00
42289;BME280;30230;47.520;19.016;2023-08-17T01:59:02;99317.03;;;19.82;100.00
42289;BME280;30230;47.520;19.016;2023-08-17T02:01:02;99336.25;;;19.87;100.00
42289;BME280;30230;47.520;19.016;2023-08-17T02:03:03;99332.72;;;19.92;100.00
42289;BME280;30230;47.520;19.016;2023-08-17T02:05:04;99327.53;;;19.90;100.00
42289;BME280;30230;47.520;19.016;2023-08-17T02:07:04;99332.16;;;19.90;100.00
42289;BME280;30230;47.520;19.016;2023-08-17T02:09:05;99335.25;;;19.98;100.00
42289;BME280;30230;47.520;19.016;2023-08-17T02:11:05;99326.16;;;19.93;100.00
42289;BME280;30230;47.520;19.016;2023-08-17T02:13:06;99339.34;;;19.96;100.00
42289;BME280;30230;47.520;19.016;2023-08-17T02:15:07;99330.00;;;19.92;100.00
42289;BME280;30230;47.520;19.016;2023-08-17T02:17:07;99335.25;;;19.98;100.00
42289;BME280;30230;47.520;19.016;2023-08-17T02:19:08;99338.06;;;20.09;100.00
42289;BME280;30230;47.520;19.016;2023-08-17T02:21:08;99334.44;;;20.03;100.00
42289;BME280;30230;47.520;19.016;2023-08-17T02:23:09;99339.41;;;20.06;100.00
42289;BME280;30230;47.520;19.016;2023-08-17T02:25:10;99330.59;;;19.99;100.00
42289;BME280;30230;47.520;19.016;2023-08-17T02:27:10;99325.91;;;19.99;100.00
42289;BME280;30230;47.520;19.016;2023-08-17T02:29:10;99330.84;;;19.97;100.00
42289;BME280;30230;47.520;19.016;2023-08-17T02:31:11;99328.38;;;19.96;100.00
42289;BME280;30230;47.520;19.016;2023-08-17T02:33:11;99327.56;;;19.95;100.00
42289;BME280;30230;47.520;19.016;2023-08-17T02:35:12;99326.72;;;19.95;100.00
42289;BME280;30230;47.520;19.016;2023-08-17T02:37:12;99333.88;;;19.96;100.00
42289;BME280;30230;47.520;19.016;2023-08-17T02:39:12;99332.44;;;19.88;100.00
42289;BME280;30230;47.520;19.016;2023-08-17T02:41:13;99327.22;;;19.87;100.00
42289;BME280;30230;47.520;19.016;2023-08-17T02:43:13;99330.47;;;19.84;100.00
42289;BME280;30230;47.520;19.016;2023-08-17T02:45:13;99326.41;;;19.86;100.00
42289;BME280;30230;47.520;19.016;2023-08-17T02:47:14;99323.34;;;19.83;100.00
42289;BME280;30230;47.520;19.016;2023-08-17T02:49:14;99328.56;;;19.84;100.00
42289;BME280;30230;47.520;19.016;2023-08-17T02:51:15;99329.09;;;19.81;100.00
42289;BME280;30230;47.520;19.016;2023-08-17T02:53:15;99329.38;;;19.85;100.00
42289;BME280;30230;47.520;19.016;2023-08-17T02:55:16;99326.41;;;19.86;100.00
42289;BME280;30230;47.520;19.016;2023-08-17T02:57:16;99324.75;;;19.85;100.00
42289;BME280;30230;47.520;19.016;2023-08-17T02:59:17;99322.00;;;19.85;100.00
42289;BME280;30230;47.520;19.016;2023-08-17T03:01:18;99311.03;;;19.85;100.00
42289;BME280;30230;47.520;19.016;2023-08-17T03:03:18;99312.69;;;19.86;100.00
42289;BME280;30230;47.520;19.016;2023-08-17T03:05:19;99314.88;;;19.89;100.00
42289;BME280;30230;47.520;19.016;2023-08-17T03:07:19;99322.03;;;19.90;100.00
42289;BME280;30230;47.520;19.016;2023-08-17T03:09:20;99310.19;;;19.85;100.00
42289;BME280;30230;47.520;19.016;2023-08-17T03:11:21;99316.22;;;19.82;100.00
42289;BME280;30230;47.520;19.016;2023-08-17T03:13:21;99312.59;;;19.76;100.00
42289;BME280;30230;47.520;19.016;2023-08-17T03:15:21;99313.97;;;19.78;100.00
42289;BME280;30230;47.520;19.016;2023-08-17T03:17:22;99317.53;;;19.79;100.00
42289;BME280;30230;47.520;19.016;2023-08-17T03:19:22;99318.97;;;19.82;100.00
42289;BME280;30230;47.520;19.016;2023-08-17T03:21:23;99323.63;;;19.81;100.00
42289;BME280;30230;47.520;19.016;2023-08-17T03:23:23;99320.84;;;19.76;100.00
42289;BME280;30230;47.520;19.016;2023-08-17T03:25:23;99317.81;;;19.77;100.00
42289;BME280;30230;47.520;19.016;2023-08-17T03:27:24;99307.41;;;19.74;100.00
42289;BME280;30230;47.520;19.016;2023-08-17T03:29:25;99307.09;;;19.71;100.00
42289;BME280;30230;47.520;19.016;2023-08-17T03:31:26;99308.22;;;19.75;100.00
42289;BME280;30230;47.520;19.016;2023-08-17T03:33:27;99297.47;;;19.68;100.00
42289;BME280;30230;47.520;19.016;2023-08-17T03:35:27;99303.25;;;19.72;100.00
42289;BME280;30230;47.520;19.016;2023-08-17T03:37:28;99309.03;;;19.75;100.00
42289;BME280;30230;47.520;19.016;2023-08-17T03:39:28;99294.44;;;19.65;100.00
42289;BME280;30230;47.520;19.016;2023-08-17T03:41:28;99315.09;;;19.77;100.00
42289;BME280;30230;47.520;19.016;2023-08-17T03:43:30;99306.84;;;19.77;100.00
42289;BME280;30230;47.520;19.016;2023-08-17T03:45:30;99302.97;;;19.73;100.00
42289;BME280;30230;47.520;19.016;2023-08-17T03:47:31;99295.03;;;19.72;100.00
42289;BME280;30230;47.520;19.016;2023-08-17T03:49:31;99298.63;;;19.77;100.00
42289;BME280;30230;47.520;19.016;2023-08-17T03:51:31;99299.72;;;19.76;100.00
42289;BME280;30230;47.520;19.016;2023-08-17T03:53:32;99303.28;;;19.77;100.00
42289;BME280;30230;47.520;19.016;2023-08-17T03:55:32;99307.13;;;19.76;100.00
42289;BME280;30230;47.520;19.016;2023-08-17T03:57:33;99297.47;;;19.68;100.00
42289;BME280;30230;47.520;19.016;2023-08-17T03:59:33;99304.06;;;19.72;100.00
42289;BME280;30230;47.520;19.016;2023-08-17T04:01:34;99295.03;;;19.72;100.00
42289;BME280;30230;47.520;19.016;2023-08-17T04:03:35;99306.03;;;19.77;100.00
42289;BME280;30230;47.520;19.016;2023-08-17T04:05:35;99310.13;;;19.74;100.00
42289;BME280;30230;47.520;19.016;2023-08-17T04:07:36;99305.13;;;19.66;100.00
42289;BME280;30230;47.520;19.016;2023-08-17T04:09:37;99310.09;;;19.69;100.00
42289;BME280;30230;47.520;19.016;2023-08-17T04:11:37;99307.06;;;19.66;100.00
42289;BME280;30230;47.520;19.016;2023-08-17T04:13:37;99310.63;;;19.66;100.00
42289;BME280;30230;47.520;19.016;2023-08-17T04:15:38;99299.63;;;19.61;100.00
42289;BME280;30230;47.520;19.016;2023-08-17T04:17:38;99311.13;;;19.63;100.00
42289;BME280;30230;47.520;19.016;2023-08-17T04:19:38;99310.31;;;19.63;100.00
42289;BME280;30230;47.520;19.016;2023-08-17T04:21:39;99317.44;;;19.64;100.00
42289;BME280;30230;47.520;19.016;2023-08-17T04:23:39;99310.88;;;19.65;100.00
42289;BME280;30230;47.520;19.016;2023-08-17T04:25:40;99320.75;;;19.66;100.00
42289;BME280;30230;47.520;19.016;2023-08-17T04:27:40;99321.31;;;19.68;100.00
42289;BME280;30230;47.520;19.016;2023-08-17T04:29:41;99325.97;;;19.67;100.00
42289;BME280;30230;47.520;19.016;2023-08-17T04:31:41;99330.63;;;19.67;100.00
42289;BME280;30230;47.520;19.016;2023-08-17T04:33:42;99317.19;;;19.65;100.00
42289;BME280;30230;47.520;19.016;2023-08-17T04:35:46;99322.44;;;19.72;100.00
42289;BME280;30230;47.520;19.016;2023-08-17T04:37:47;99326.59;;;19.74;100.00
42289;BME280;30230;47.520;19.016;2023-08-17T04:39:47;99327.38;;;19.70;100.00
42289;BME280;30230;47.520;19.016;2023-08-17T04:41:49;99325.19;;;19.72;100.00
42289;BME280;30230;47.520;19.016;2023-08-17T04:43:49;99331.16;;;19.69;100.00
42289;BME280;30230;47.520;19.016;2023-08-17T04:45:50;99336.13;;;19.72;100.00
42289;BME280;30230;47.520;19.016;2023-08-17T04:47:50;99325.69;;;19.69;100.00
42289;BME280;30230;47.520;19.016;2023-08-17T04:49:50;99312.75;;;19.59;100.00
42289;BME280;30230;47.520;19.016;2023-08-17T04:51:52;99327.31;;;19.65;100.00
42289;BME280;30230;47.520;19.016;2023-08-17T04:53:52;99333.66;;;19.70;100.00
42289;BME280;30230;47.520;19.016;2023-08-17T04:55:53;99334.81;;;19.74;100.00
42289;BME280;30230;47.520;19.016;2023-08-17T04:57:53;99331.22;;;19.74;100.00
42289;BME280;30230;47.520;19.016;2023-08-17T04:59:54;99342.22;;;19.79;100.00
42289;BME280;30230;47.520;19.016;2023-08-17T05:01:54;99341.19;;;19.85;100.00
42289;BME280;30230;47.520;19.016;2023-08-17T05:03:54;99335.13;;;19.83;100.00
42289;BME280;30230;47.520;19.016;2023-08-17T05:05:55;99325.22;;;19.77;100.00
42289;BME280;30230;47.520;19.016;2023-08-17T05:07:55;99333.78;;;19.86;100.00
42289;BME280;30230;47.520;19.016;2023-08-17T05:09:56;99323.09;;;19.89;100.00
42289;BME280;30230;47.520;19.016;2023-08-17T05:11:56;99321.19;;;19.90;100.00
42289;BME280;30230;47.520;19.016;2023-08-17T05:13:56;99331.38;;;19.94;100.00
42289;BME280;30230;47.520;19.016;2023-08-17T05:15:57;99325.91;;;19.99;100.00
42289;BME280;30230;47.520;19.016;2023-08-17T05:17:57;99330.09;;;20.07;100.00
42289;BME280;30230;47.520;19.016;2023-08-17T05:19:58;99331.22;;;20.11;100.00
42289;BME280;30230;47.520;19.016;2023-08-17T05:21:58;99338.63;;;20.16;100.00
42289;BME280;30230;47.520;19.016;2023-08-17T05:23:58;99340.59;;;20.20;100.00
42289;BME280;30230;47.520;19.016;2023-08-17T05:25:59;99333.81;;;20.33;100.00
42289;BME280;30230;47.520;19.016;2023-08-17T05:28:00;99341.78;;;20.35;100.00
42289;BME280;30230;47.520;19.016;2023-08-17T05:30:01;99337.13;;;20.35;100.00
42289;BME280;30230;47.520;19.016;2023-08-17T05:32:01;99336.59;;;20.38;100.00
42289;BME280;30230;47.520;19.016;2023-08-17T05:34:02;99335.81;;;20.43;100.00
42289;BME280;30230;47.520;19.016;2023-08-17T05:36:02;99342.44;;;20.52;100.00
42289;BME280;30230;47.520;19.016;2023-08-17T05:38:03;99343.59;;;20.61;100.00
42289;BME280;30230;47.520;19.016;2023-08-17T05:40:04;99332.59;;;20.61;100.00
42289;BME280;30230;47.520;19.016;2023-08-17T05:42:05;99333.44;;;20.67;100.00
42289;BME280;30230;47.520;19.016;2023-08-17T05:44:06;99336.25;;;20.77;100.00
42289;BME280;30230;47.520;19.016;2023-08-17T05:46:09;99322.78;;;20.75;100.00
42289;BME280;30230;47.520;19.016;2023-08-17T05:48:10;99333.78;;;20.80;100.00
42289;BME280;30230;47.520;19.016;2023-08-17T05:50:10;99336.25;;;20.82;100.00
42289;BME280;30230;47.520;19.016;2023-08-17T05:52:11;99344.00;;;20.95;100.00
42289;BME280;30230;47.520;19.016;2023-08-17T05:54:12;99345.97;;;21.05;100.00
42289;BME280;30230;47.520;19.016;2023-08-17T05:56:12;99340.72;;;21.08;100.00
42289;BME280;30230;47.520;19.016;2023-08-17T05:58:12;99343.25;;;21.20;100.00
42289;BME280;30230;47.520;19.016;2023-08-17T06:00:13;99338.59;;;21.26;100.00
42289;BME280;30230;47.520;19.016;2023-08-17T06:02:14;99338.34;;;21.32;100.00
42289;BME280;30230;47.520;19.016;2023-08-17T06:04:14;99339.75;;;21.45;100.00
42289;BME280;30230;47.520;19.016;2023-08-17T06:06:15;99337.56;;;21.47;100.00
42289;BME280;30230;47.520;19.016;2023-08-17T06:08:15;99334.00;;;21.52;100.00
42289;BME280;30230;47.520;19.016;2023-08-17T06:10:15;99337.03;;;21.61;100.00
42289;BME280;30230;47.520;19.016;2023-08-17T06:12:16;99336.47;;;21.58;100.00
42289;BME280;30230;47.520;19.016;2023-08-17T06:14:17;99325.19;;;21.60;100.00
42289;BME280;30230;47.520;19.016;2023-08-17T06:16:18;99331.53;;;21.61;100.00
42289;BME280;30230;47.520;19.016;2023-08-17T06:18:18;99327.69;;;21.62;100.00
42289;BME280;30230;47.520;19.016;2023-08-17T06:20:20;99335.34;;;21.65;100.00
42289;BME280;30230;47.520;19.016;2023-08-17T06:22:21;99328.22;;;21.58;100.00
42289;BME280;30230;47.520;19.016;2023-08-17T06:24:22;99327.94;;;21.55;100.00
42289;BME280;30230;47.520;19.016;2023-08-17T06:26:22;99327.94;;;21.65;100.00
42289;BME280;30230;47.520;19.016;2023-08-17T06:28:22;99324.09;;;21.61;100.00
42289;BME280;30230;47.520;19.016;2023-08-17T06:30:23;99323.81;;;21.63;100.00
42289;BME280;30230;47.520;19.016;2023-08-17T06:32:23;99325.75;;;21.52;100.00
42289;BME280;30230;47.520;19.016;2023-08-17T06:34:24;99338.09;;;21.44;100.00
42289;BME280;30230;47.520;19.016;2023-08-17T06:36:24;99326.56;;;21.37;100.00
42289;BME280;30230;47.520;19.016;2023-08-17T06:38:25;99327.09;;;21.34;100.00
42289;BME280;30230;47.520;19.016;2023-08-17T06:40:25;99327.66;;;21.41;100.00
42289;BME280;30230;47.520;19.016;2023-08-17T06:42:25;99328.19;;;21.48;100.00
42289;BME280;30230;47.520;19.016;2023-08-17T06:44:26;99320.25;;;21.52;100.00
42289;BME280;30230;47.520;19.016;2023-08-17T06:46:26;99318.84;;;21.59;100.00
42289;BME280;30230;47.520;19.016;2023-08-17T06:48:28;99308.97;;;21.74;100.00
42289;BME280;30230;47.520;19.016;2023-08-17T06:50:28;99308.97;;;21.84;100.00
42289;BME280;30230;47.520;19.016;2023-08-17T06:52:29;99301.53;;;21.90;100.00
42289;BME280;30230;47.520;19.016;2023-08-17T06:54:29;99297.41;;;21.97;100.00
42289;BME280;30230;47.520;19.016;2023-08-17T06:56:32;99307.59;;;21.97;100.00
42289;BME280;30230;47.520;19.016;2023-08-17T06:58:32;99310.34;;;21.97;100.00
42289;BME280;30230;47.520;19.016;2023-08-17T07:00:33;99309.22;;;22.08;100.00
42289;BME280;30230;47.520;19.016;2023-08-17T07:02:35;99306.72;;;22.17;100.00
42289;BME280;30230;47.520;19.016;2023-08-17T07:04:35;99318.28;;;22.24;100.00
42289;BME280;30230;47.520;19.016;2023-08-17T07:06:36;99317.13;;;22.40;100.00
42289;BME280;30230;47.520;19.016;2023-08-17T07:08:36;99313.25;;;22.51;100.00
42289;BME280;30230;47.520;19.016;2023-08-17T07:10:37;99318.63;;;22.77;100.00
42289;BME280;30230;47.520;19.016;2023-08-17T07:12:38;99322.16;;;22.98;100.00
42289;BME280;30230;47.520;19.016;2023-08-17T07:14:38;99323.56;;;22.85;100.00
42289;BME280;30230;47.520;19.016;2023-08-17T07:16:39;99316.13;;;22.85;100.00
42289;BME280;30230;47.520;19.016;2023-08-17T07:18:39;99330.16;;;22.84;100.00
42289;BME280;30230;47.520;19.016;2023-08-17T07:20:40;99329.66;;;22.77;100.00
42289;BME280;30230;47.520;19.016;2023-08-17T07:22:40;99325.81;;;22.73;100.00
42289;BME280;30230;47.520;19.016;2023-08-17T07:24:41;99323.91;;;22.63;100.00
42289;BME280;30230;47.520;19.016;2023-08-17T07:26:41;99327.50;;;22.63;100.00
42289;BME280;30230;47.520;19.016;2023-08-17T07:28:42;99339.09;;;22.55;100.00
42289;BME280;30230;47.520;19.016;2023-08-17T07:30:42;99333.63;;;22.50;100.00
42289;BME280;30230;47.520;19.016;2023-08-17T07:32:42;99326.47;;;22.49;100.00
42289;BME280;30230;47.520;19.016;2023-08-17T07:34:43;99317.09;;;22.50;100.00
42289;BME280;30230;47.520;19.016;2023-08-17T07:36:43;99319.59;;;22.42;100.00
42289;BME280;30230;47.520;19.016;2023-08-17T07:38:44;99314.41;;;22.30;100.00
42289;BME280;30230;47.520;19.016;2023-08-17T07:40:44;99308.09;;;22.24;100.00
42289;BME280;30230;47.520;19.016;2023-08-17T07:42:45;99316.88;;;22.31;100.00
42289;BME280;30230;47.520;19.016;2023-08-17T07:44:46;99314.13;;;22.31;100.00
42289;BME280;30230;47.520;19.016;2023-08-17T07:46:47;99314.69;;;22.39;100.00
42289;BME280;30230;47.520;19.016;2023-08-17T07:48:47;99322.63;;;22.40;100.00
42289;BME280;30230;47.520;19.016;2023-08-17T07:50:52;99324.28;;;22.41;100.00
42289;BME280;30230;47.520;19.016;2023-08-17T07:52:53;99322.94;;;22.39;100.00
42289;BME280;30230;47.520;19.016;2023-08-17T07:54:53;99327.56;;;22.43;100.00
42289;BME280;30230;47.520;19.016;2023-08-17T07:56:54;99316.28;;;22.45;100.00
42289;BME280;30230;47.520;19.016;2023-08-17T07:58:54;99317.94;;;22.46;100.00
42289;BME280;30230;47.520;19.016;2023-08-17T08:00:55;99320.94;;;22.54;100.00
42289;BME280;30230;47.520;19.016;2023-08-17T08:02:55;99327.81;;;22.57;100.00
42289;BME280;30230;47.520;19.016;2023-08-17T08:04:56;99324.22;;;22.61;100.00
42289;BME280;30230;47.520;19.016;2023-08-17T08:06:56;99323.88;;;22.73;100.00
42289;BME280;30230;47.520;19.016;2023-08-17T08:08:56;99326.63;;;22.73;100.00
42289;BME280;30230;47.520;19.016;2023-08-17T08:10:58;99319.16;;;22.79;100.00
42289;BME280;30230;47.520;19.016;2023-08-17T08:12:59;99322.47;;;22.81;100.00
42289;BME280;30230;47.520;19.016;2023-08-17T08:14:59;99317.22;;;22.84;100.00
42289;BME280;30230;47.520;19.016;2023-08-17T08:16:59;99319.41;;;22.87;100.00
42289;BME280;30230;47.520;19.016;2023-08-17T08:19:00;99321.34;;;22.92;100.00
42289;BME280;30230;47.520;19.016;2023-08-17T08:21:00;99322.91;;;23.08;100.00
42289;BME280;30230;47.520;19.016;2023-08-17T08:23:01;99308.16;;;23.33;100.00
42289;BME280;30230;47.520;19.016;2023-08-17T08:25:02;99307.44;;;23.91;100.00
42289;BME280;30230;47.520;19.016;2023-08-17T08:27:03;99313.09;;;24.29;100.00
42289;BME280;30230;47.520;19.016;2023-08-17T08:29:03;99308.84;;;24.65;100.00
42289;BME280;30230;47.520;19.016;2023-08-17T08:31:04;99308.59;;;25.05;100.00
42289;BME280;30230;47.520;19.016;2023-08-17T08:33:05;99300.94;;;25.20;96.25
42289;BME280;30230;47.520;19.016;2023-08-17T08:35:05;99312.19;;;25.62;92.88
42289;BME280;30230;47.520;19.016;2023-08-17T08:37:06;99307.59;;;25.90;94.92
42289;BME280;30230;47.520;19.016;2023-08-17T08:39:06;99307.44;;;26.14;87.39
42289;BME280;30230;47.520;19.016;2023-08-17T08:41:08;99311.91;;;26.10;86.65
42289;BME280;30230;47.520;19.016;2023-08-17T08:43:08;99303.53;;;26.01;91.13
42289;BME280;30230;47.520;19.016;2023-08-17T08:45:10;99305.84;;;25.80;87.54
42289;BME280;30230;47.520;19.016;2023-08-17T08:47:11;99300.69;;;25.55;95.27
42289;BME280;30230;47.520;19.016;2023-08-17T08:49:12;99306.31;;;25.31;88.37
42289;BME280;30230;47.520;19.016;2023-08-17T08:51:16;99297.19;;;25.11;93.71
42289;BME280;30230;47.520;19.016;2023-08-17T08:53:31;99300.28;;;25.10;94.74
42289;BME280;30230;47.520;19.016;2023-08-17T08:55:34;99299.41;;;24.90;92.82
42289;BME280;30230;47.520;19.016;2023-08-17T08:57:34;99300.28;;;24.86;91.18
42289;BME280;30230;47.520;19.016;2023-08-17T08:59:35;99304.31;;;24.75;90.60
42289;BME280;30230;47.520;19.016;2023-08-17T09:01:36;99301.53;;;24.56;91.72
42289;BME280;30230;47.520;19.016;2023-08-17T09:03:38;99303.84;;;24.43;87.91
42289;BME280;30230;47.520;19.016;2023-08-17T09:05:39;99308.19;;;24.26;84.00
42289;BME280;30230;47.520;19.016;2023-08-17T09:07:42;99309.69;;;24.13;91.63
42289;BME280;30230;47.520;19.016;2023-08-17T09:09:42;99310.38;;;24.00;97.09
42289;BME280;30230;47.520;19.016;2023-08-17T09:11:44;99303.16;;;23.75;99.66
42289;BME280;30230;47.520;19.016;2023-08-17T09:13:45;99304.06;;;23.65;95.76
42289;BME280;30230;47.520;19.016;2023-08-17T09:15:45;99311.81;;;23.63;99.21
42289;BME280;30230;47.520;19.016;2023-08-17T09:17:45;99308.28;;;23.52;100.00
42289;BME280;30230;47.520;19.016;2023-08-17T09:19:47;99307.25;;;23.43;100.00
42289;BME280;30230;47.520;19.016;2023-08-17T09:21:48;99301.81;;;23.33;100.00
42289;BME280;30230;47.520;19.016;2023-08-17T09:23:52;99303.75;;;23.32;100.00
42289;BME280;30230;47.520;19.016;2023-08-17T09:25:53;99294.03;;;23.40;98.76
42289;BME280;30230;47.520;19.016;2023-08-17T09:27:58;99297.78;;;23.54;90.23
42289;BME280;30230;47.520;19.016;2023-08-17T09:30:05;99291.75;;;23.52;90.25
42289;BME280;30230;47.520;19.016;2023-08-17T09:32:06;99294.16;;;23.64;92.17
42289;BME280;30230;47.520;19.016;2023-08-17T09:34:07;99293.28;;;23.69;92.65
42289;BME280;30230;47.520;19.016;2023-08-17T09:36:10;99291.56;;;23.78;92.96
42289;BME280;30230;47.520;19.016;2023-08-17T09:38:12;99288.16;;;23.86;97.46
42289;BME280;30230;47.520;19.016;2023-08-17T09:40:14;99289.13;;;24.00;96.01
42289;BME280;30230;47.520;19.016;2023-08-17T09:42:14;99290.63;;;24.16;87.38
42289;BME280;30230;47.520;19.016;2023-08-17T09:44:18;99285.41;;;24.39;91.59
42289;BME280;30230;47.520;19.016;2023-08-17T09:46:18;99284.69;;;24.76;93.36
42289;BME280;30230;47.520;19.016;2023-08-17T09:48:19;99284.50;;;25.10;93.53
42289;BME280;30230;47.520;19.016;2023-08-17T09:50:22;99285.13;;;25.07;93.19
42289;BME280;30230;47.520;19.016;2023-08-17T09:52:23;99280.16;;;25.04;84.55
42289;BME280;30230;47.520;19.016;2023-08-17T09:54:27;99278.75;;;25.26;82.95
42289;BME280;30230;47.520;19.016;2023-08-17T09:56:30;99283.38;;;25.30;82.20
42289;BME280;30230;47.520;19.016;2023-08-17T09:58:31;99280.75;;;25.39;83.47
42289;BME280;30230;47.520;19.016;2023-08-17T10:00:32;99268.31;;;25.88;82.05
42289;BME280;30230;47.520;19.016;2023-08-17T10:02:33;99275.66;;;26.11;80.72
42289;BME280;30230;47.520;19.016;2023-08-17T10:04:35;99273.28;;;26.18;78.95
42289;BME280;30230;47.520;19.016;2023-08-17T10:06:39;99273.38;;;26.13;78.98
42289;BME280;30230;47.520;19.016;2023-08-17T10:08:43;99269.19;;;26.30;75.94
42289;BME280;30230;47.520;19.016;2023-08-17T10:10:45;99270.13;;;26.11;77.83
42289;BME280;30230;47.520;19.016;2023-08-17T10:12:53;99275.00;;;25.87;79.08
42289;BME280;30230;47.520;19.016;2023-08-17T10:15:07;99279.94;;;25.71;83.03
42289;BME280;30230;47.520;19.016;2023-08-17T10:17:09;99275.09;;;25.63;81.09
42289;BME280;30230;47.520;19.016;2023-08-17T10:19:25;99268.78;;;25.43;85.18
42289;BME280;30230;47.520;19.016;2023-08-17T10:21:36;99271.66;;;25.38;83.56
42289;BME280;30230;47.520;19.016;2023-08-17T10:23:38;99283.53;;;25.39;81.08
42289;BME280;30230;47.520;19.016;2023-08-17T10:25:39;99275.81;;;25.36;83.36
42289;BME280;30230;47.520;19.016;2023-08-17T10:27:41;99274.84;;;25.27;83.53